sensor_id;sensor_type;location;lat;lon;timestamp;temperature;humidity
69281;SHT31;56392;51.082;17.080;2023-04-08T00:01:55;6.69;85.01
69281;SHT31;56392;51.082;17.080;2023-04-08T00:07:18;6.69;85.06
69281;SHT31;56392;51.082;17.080;2023-04-08T00:12:42;6.61;85.20
69281;SHT31;56392;51.082;17.080;2023-04-08T00:18:07;6.64;84.89
69281;SHT31;56392;51.082;17.080;2023-04-08T00:23:30;6.66;85.13
69281;SHT31;56392;51.082;17.080;2023-04-08T00:28:53;6.67;85.23
69281;SHT31;56392;51.082;17.080;2023-04-08T00:34:18;6.69;85.21
69281;SHT31;56392;51.082;17.080;2023-04-08T00:39:41;6.69;85.19
69281;SHT31;56392;51.082;17.080;2023-04-08T00:45:05;6.66;85.29
69281;SHT31;56392;51.082;17.080;2023-04-08T00:50:30;6.67;85.30
69281;SHT31;56392;51.082;17.080;2023-04-08T00:55:53;6.69;85.27
69281;SHT31;56392;51.082;17.080;2023-04-08T01:01:21;6.70;85.48
69281;SHT31;56392;51.082;17.080;2023-04-08T01:06:53;6.66;85.83
69281;SHT31;56392;51.082;17.080;2023-04-08T01:12:21;6.61;86.21
69281;SHT31;56392;51.082;17.080;2023-04-08T01:17:49;6.58;86.40
69281;SHT31;56392;51.082;17.080;2023-04-08T01:23:21;6.60;86.65
69281;SHT31;56392;51.082;17.080;2023-04-08T01:28:48;6.61;86.79
69281;SHT31;56392;51.082;17.080;2023-04-08T01:34:14;6.57;87.00
69281;SHT31;56392;51.082;17.080;2023-04-08T01:39:38;6.50;87.27
69281;SHT31;56392;51.082;17.080;2023-04-08T01:45:05;6.40;87.02
69281;SHT31;56392;51.082;17.080;2023-04-08T01:50:30;6.28;86.38
69281;SHT31;56392;51.082;17.080;2023-04-08T01:55:57;6.13;86.22
69281;SHT31;56392;51.082;17.080;2023-04-08T02:01:26;6.09;85.92
69281;SHT31;56392;51.082;17.080;2023-04-08T02:06:51;6.02;85.98
69281;SHT31;56392;51.082;17.080;2023-04-08T02:12:14;6.01;85.71
69281;SHT31;56392;51.082;17.080;2023-04-08T02:17:43;5.94;85.42
69281;SHT31;56392;51.082;17.080;2023-04-08T02:23:10;5.79;85.50
69281;SHT31;56392;51.082;17.080;2023-04-08T02:28:38;5.70;85.72
69281;SHT31;56392;51.082;17.080;2023-04-08T02:34:04;5.72;85.77
69281;SHT31;56392;51.082;17.080;2023-04-08T02:39:30;5.74;85.81
69281;SHT31;56392;51.082;17.080;2023-04-08T02:44:54;5.79;85.45
69281;SHT31;56392;51.082;17.080;2023-04-08T02:50:20;5.78;85.21
69281;SHT31;56392;51.082;17.080;2023-04-08T02:55:43;5.75;85.19
69281;SHT31;56392;51.082;17.080;2023-04-08T03:01:07;5.79;85.15
69281;SHT31;56392;51.082;17.080;2023-04-08T03:06:34;5.75;84.98
69281;SHT31;56392;51.082;17.080;2023-04-08T03:11:58;5.72;84.87
69281;SHT31;56392;51.082;17.080;2023-04-08T03:17:21;5.74;84.71
69281;SHT31;56392;51.082;17.080;2023-04-08T03:22:47;5.70;84.45
69281;SHT31;56392;51.082;17.080;2023-04-08T03:28:10;5.68;84.26
69281;SHT31;56392;51.082;17.080;2023-04-08T03:33:34;5.60;84.32
69281;SHT31;56392;51.082;17.080;2023-04-08T03:38:58;5.55;84.04
69281;SHT31;56392;51.082;17.080;2023-04-08T03:44:22;5.51;84.13
69281;SHT31;56392;51.082;17.080;2023-04-08T03:49:45;5.46;83.81
69281;SHT31;56392;51.082;17.080;2023-04-08T03:55:10;5.38;83.32
69281;SHT31;56392;51.082;17.080;2023-04-08T04:00:35;5.44;82.90
69281;SHT31;56392;51.082;17.080;2023-04-08T04:05:58;5.40;83.23
69281;SHT31;56392;51.082;17.080;2023-04-08T04:11:23;5.44;83.32
69281;SHT31;56392;51.082;17.080;2023-04-08T04:16:47;5.41;83.99
69281;SHT31;56392;51.082;17.080;2023-04-08T04:22:10;5.38;84.22
69281;SHT31;56392;51.082;17.080;2023-04-08T04:27:34;5.40;84.41
69281;SHT31;56392;51.082;17.080;2023-04-08T04:32:58;5.47;84.19
69281;SHT31;56392;51.082;17.080;2023-04-08T04:38:21;5.40;84.16
69281;SHT31;56392;51.082;17.080;2023-04-08T04:43:46;5.46;83.91
69281;SHT31;56392;51.082;17.080;2023-04-08T04:49:09;5.46;83.77
69281;SHT31;56392;51.082;17.080;2023-04-08T04:54:33;5.44;83.58
69281;SHT31;56392;51.082;17.080;2023-04-08T04:59:58;5.41;83.17
69281;SHT31;56392;51.082;17.080;2023-04-08T05:05:21;5.37;83.09
69281;SHT31;56392;51.082;17.080;2023-04-08T05:10:44;5.38;82.85
69281;SHT31;56392;51.082;17.080;2023-04-08T05:16:09;5.24;83.07
69281;SHT31;56392;51.082;17.080;2023-04-08T05:21:32;5.27;83.11
69281;SHT31;56392;51.082;17.080;2023-04-08T05:26:55;5.26;82.62
69281;SHT31;56392;51.082;17.080;2023-04-08T05:32:20;5.27;82.48
69281;SHT31;56392;51.082;17.080;2023-04-08T05:37:43;5.30;82.66
69281;SHT31;56392;51.082;17.080;2023-04-08T05:43:06;5.26;82.21
69281;SHT31;56392;51.082;17.080;2023-04-08T05:48:30;5.30;82.11
69281;SHT31;56392;51.082;17.080;2023-04-08T05:53:54;5.34;81.81
69281;SHT31;56392;51.082;17.080;2023-04-08T05:59:17;5.29;81.44
69281;SHT31;56392;51.082;17.080;2023-04-08T06:04:42;5.31;80.93
69281;SHT31;56392;51.082;17.080;2023-04-08T06:10:06;5.33;79.94
69281;SHT31;56392;51.082;17.080;2023-04-08T06:15:29;5.36;80.90
69281;SHT31;56392;51.082;17.080;2023-04-08T06:20:54;5.37;80.55
69281;SHT31;56392;51.082;17.080;2023-04-08T06:26:17;5.48;80.76
69281;SHT31;56392;51.082;17.080;2023-04-08T06:31:40;5.48;81.15
69281;SHT31;56392;51.082;17.080;2023-04-08T06:37:05;5.48;80.99
69281;SHT31;56392;51.082;17.080;2023-04-08T06:42:28;5.50;79.19
69281;SHT31;56392;51.082;17.080;2023-04-08T06:47:51;5.51;78.70
69281;SHT31;56392;51.082;17.080;2023-04-08T06:53:18;5.64;78.78
69281;SHT31;56392;51.082;17.080;2023-04-08T06:58:41;5.71;79.09
69281;SHT31;56392;51.082;17.080;2023-04-08T07:04:05;5.61;78.29
69281;SHT31;56392;51.082;17.080;2023-04-08T07:09:29;5.61;78.52
69281;SHT31;56392;51.082;17.080;2023-04-08T07:14:53;5.58;77.13
69281;SHT31;56392;51.082;17.080;2023-04-08T07:20:16;5.61;77.81
69281;SHT31;56392;51.082;17.080;2023-04-08T07:25:40;5.70;78.13
69281;SHT31;56392;51.082;17.080;2023-04-08T07:31:11;5.71;76.66
69281;SHT31;56392;51.082;17.080;2023-04-08T07:36:51;5.70;76.84
69281;SHT31;56392;51.082;17.080;2023-04-08T07:42:15;5.77;77.03
69281;SHT31;56392;51.082;17.080;2023-04-08T07:47:39;5.81;76.71
69281;SHT31;56392;51.082;17.080;2023-04-08T07:53:02;5.88;76.30
69281;SHT31;56392;51.082;17.080;2023-04-08T07:58:26;5.89;76.42
69281;SHT31;56392;51.082;17.080;2023-04-08T08:03:50;5.95;76.78
69281;SHT31;56392;51.082;17.080;2023-04-08T08:09:13;6.06;76.57
69281;SHT31;56392;51.082;17.080;2023-04-08T08:14:38;6.18;76.74
69281;SHT31;56392;51.082;17.080;2023-04-08T08:20:02;6.18;75.84
69281;SHT31;56392;51.082;17.080;2023-04-08T08:25:26;6.19;76.08
69281;SHT31;56392;51.082;17.080;2023-04-08T08:30:50;6.25;76.47
69281;SHT31;56392;51.082;17.080;2023-04-08T08:36:13;6.36;75.84
69281;SHT31;56392;51.082;17.080;2023-04-08T08:41:36;6.37;76.23
69281;SHT31;56392;51.082;17.080;2023-04-08T08:47:01;6.34;76.52
69281;SHT31;56392;51.082;17.080;2023-04-08T08:52:24;6.42;76.94
69281;SHT31;56392;51.082;17.080;2023-04-08T08:57:49;6.56;76.30
69281;SHT31;56392;51.082;17.080;2023-04-08T09:03:18;6.61;76.13
69281;SHT31;56392;51.082;17.080;2023-04-08T09:08:42;6.50;75.74
69281;SHT31;56392;51.082;17.080;2023-04-08T09:14:05;6.61;75.60
69281;SHT31;56392;51.082;17.080;2023-04-08T09:20:02;6.67;74.32
69281;SHT31;56392;51.082;17.080;2023-04-08T09:25:28;6.71;74.88
69281;SHT31;56392;51.082;17.080;2023-04-08T09:30:51;6.74;73.68
69281;SHT31;56392;51.082;17.080;2023-04-08T09:36:16;6.84;73.69
69281;SHT31;56392;51.082;17.080;2023-04-08T09:41:40;6.80;74.54
69281;SHT31;56392;51.082;17.080;2023-04-08T09:47:08;6.98;74.06
69281;SHT31;56392;51.082;17.080;2023-04-08T09:52:41;7.08;72.45
69281;SHT31;56392;51.082;17.080;2023-04-08T09:58:10;7.18;73.36
69281;SHT31;56392;51.082;17.080;2023-04-08T10:03:39;7.23;73.12
69281;SHT31;56392;51.082;17.080;2023-04-08T10:09:07;7.35;72.60
69281;SHT31;56392;51.082;17.080;2023-04-08T10:14:31;7.39;71.60
69281;SHT31;56392;51.082;17.080;2023-04-08T10:19:54;7.42;71.25
69281;SHT31;56392;51.082;17.080;2023-04-08T10:25:29;7.39;71.89
69281;SHT31;56392;51.082;17.080;2023-04-08T10:30:55;7.48;71.69
69281;SHT31;56392;51.082;17.080;2023-04-08T10:36:19;7.55;72.30
69281;SHT31;56392;51.082;17.080;2023-04-08T10:41:44;7.61;72.32
69281;SHT31;56392;51.082;17.080;2023-04-08T10:47:07;7.69;72.12
69281;SHT31;56392;51.082;17.080;2023-04-08T10:52:30;7.77;72.01
69281;SHT31;56392;51.082;17.080;2023-04-08T10:57:55;7.83;71.74
69281;SHT31;56392;51.082;17.080;2023-04-08T11:03:26;7.87;72.18
69281;SHT31;56392;51.082;17.080;2023-04-08T11:08:49;7.90;72.09
69281;SHT31;56392;51.082;17.080;2023-04-08T11:14:14;7.98;70.83
69281;SHT31;56392;51.082;17.080;2023-04-08T11:19:40;8.08;71.02
69281;SHT31;56392;51.082;17.080;2023-04-08T11:25:04;8.15;71.44
69281;SHT31;56392;51.082;17.080;2023-04-08T11:30:32;8.25;71.07
69281;SHT31;56392;51.082;17.080;2023-04-08T11:35:55;8.41;69.93
69281;SHT31;56392;51.082;17.080;2023-04-08T11:41:18;8.54;70.93
69281;SHT31;56392;51.082;17.080;2023-04-08T11:46:52;8.61;69.92
69281;SHT31;56392;51.082;17.080;2023-04-08T11:52:17;8.73;70.68
69281;SHT31;56392;51.082;17.080;2023-04-08T11:57:40;8.76;69.70
69281;SHT31;56392;51.082;17.080;2023-04-08T12:03:06;8.83;69.15
69281;SHT31;56392;51.082;17.080;2023-04-08T12:08:29;8.93;68.75
69281;SHT31;56392;51.082;17.080;2023-04-08T12:13:52;9.09;69.00
69281;SHT31;56392;51.082;17.080;2023-04-08T12:19:17;9.16;68.04
69281;SHT31;56392;51.082;17.080;2023-04-08T12:24:40;9.36;67.64
69281;SHT31;56392;51.082;17.080;2023-04-08T12:30:04;9.52;66.38
69281;SHT31;56392;51.082;17.080;2023-04-08T12:35:29;9.50;66.12
69281;SHT31;56392;51.082;17.080;2023-04-08T12:40:52;9.47;65.84
69281;SHT31;56392;51.082;17.080;2023-04-08T12:46:15;9.54;66.45
69281;SHT31;56392;51.082;17.080;2023-04-08T12:51:40;9.57;66.23
69281;SHT31;56392;51.082;17.080;2023-04-08T12:57:03;9.54;65.54
69281;SHT31;56392;51.082;17.080;2023-04-08T13:02:26;9.57;65.80
69281;SHT31;56392;51.082;17.080;2023-04-08T13:07:51;9.73;66.30
69281;SHT31;56392;51.082;17.080;2023-04-08T13:13:14;9.85;65.16
69281;SHT31;56392;51.082;17.080;2023-04-08T13:18:37;9.85;64.69
69281;SHT31;56392;51.082;17.080;2023-04-08T13:24:01;9.81;64.74
69281;SHT31;56392;51.082;17.080;2023-04-08T13:29:24;9.84;64.40
69281;SHT31;56392;51.082;17.080;2023-04-08T13:34:48;9.88;64.41
69281;SHT31;56392;51.082;17.080;2023-04-08T13:40:13;9.99;64.87
69281;SHT31;56392;51.082;17.080;2023-04-08T13:45:37;10.05;64.17
69281;SHT31;56392;51.082;17.080;2023-04-08T13:51:01;10.01;64.14
69281;SHT31;56392;51.082;17.080;2023-04-08T13:56:25;10.01;63.36
69281;SHT31;56392;51.082;17.080;2023-04-08T14:01:48;10.06;64.10
69281;SHT31;56392;51.082;17.080;2023-04-08T14:07:14;10.20;64.75
69281;SHT31;56392;51.082;17.080;2023-04-08T14:12:39;10.32;63.60
69281;SHT31;56392;51.082;17.080;2023-04-08T14:18:02;10.32;62.89
69281;SHT31;56392;51.082;17.080;2023-04-08T14:23:25;10.37;62.87
69281;SHT31;56392;51.082;17.080;2023-04-08T14:28:51;10.36;62.04
69281;SHT31;56392;51.082;17.080;2023-04-08T14:34:14;10.35;63.26
69281;SHT31;56392;51.082;17.080;2023-04-08T14:39:37;10.39;62.42
69281;SHT31;56392;51.082;17.080;2023-04-08T14:45:02;10.43;62.07
69281;SHT31;56392;51.082;17.080;2023-04-08T14:50:25;10.43;62.39
69281;SHT31;56392;51.082;17.080;2023-04-08T14:55:48;10.46;62.78
69281;SHT31;56392;51.082;17.080;2023-04-08T15:01:13;10.50;62.95
69281;SHT31;56392;51.082;17.080;2023-04-08T15:06:37;10.56;62.89
69281;SHT31;56392;51.082;17.080;2023-04-08T15:12:01;10.61;63.78
69281;SHT31;56392;51.082;17.080;2023-04-08T15:17:27;10.63;63.70
69281;SHT31;56392;51.082;17.080;2023-04-08T15:22:50;10.64;62.26
69281;SHT31;56392;51.082;17.080;2023-04-08T15:28:13;10.63;61.50
69281;SHT31;56392;51.082;17.080;2023-04-08T15:33:38;10.59;61.92
69281;SHT31;56392;51.082;17.080;2023-04-08T15:39:03;10.63;62.58
69281;SHT31;56392;51.082;17.080;2023-04-08T15:44:29;10.64;62.85
69281;SHT31;56392;51.082;17.080;2023-04-08T15:49:54;10.67;62.95
69281;SHT31;56392;51.082;17.080;2023-04-08T15:55:18;10.68;62.99
69281;SHT31;56392;51.082;17.080;2023-04-08T16:00:41;10.74;63.79
69281;SHT31;56392;51.082;17.080;2023-04-08T16:06:06;10.74;63.75
69281;SHT31;56392;51.082;17.080;2023-04-08T16:11:29;10.71;62.88
69281;SHT31;56392;51.082;17.080;2023-04-08T16:16:52;10.74;63.52
69281;SHT31;56392;51.082;17.080;2023-04-08T16:22:17;10.71;62.92
69281;SHT31;56392;51.082;17.080;2023-04-08T16:27:40;10.73;63.16
69281;SHT31;56392;51.082;17.080;2023-04-08T16:33:04;10.76;63.74
69281;SHT31;56392;51.082;17.080;2023-04-08T16:38:31;10.78;63.62
69281;SHT31;56392;51.082;17.080;2023-04-08T16:43:54;10.80;64.05
69281;SHT31;56392;51.082;17.080;2023-04-08T16:49:18;10.77;63.63
69281;SHT31;56392;51.082;17.080;2023-04-08T16:54:43;10.77;63.90
69281;SHT31;56392;51.082;17.080;2023-04-08T17:00:07;10.77;64.45
69281;SHT31;56392;51.082;17.080;2023-04-08T17:05:31;10.76;66.32
69281;SHT31;56392;51.082;17.080;2023-04-08T17:11:04;10.74;66.10
69281;SHT31;56392;51.082;17.080;2023-04-08T17:16:27;10.70;67.46
69281;SHT31;56392;51.082;17.080;2023-04-08T17:21:50;10.64;68.09
69281;SHT31;56392;51.082;17.080;2023-04-08T17:27:15;10.57;69.01
69281;SHT31;56392;51.082;17.080;2023-04-08T17:32:38;10.56;67.94
69281;SHT31;56392;51.082;17.080;2023-04-08T17:38:02;10.53;68.91
69281;SHT31;56392;51.082;17.080;2023-04-08T17:43:26;10.43;69.18
69281;SHT31;56392;51.082;17.080;2023-04-08T17:48:52;10.39;68.38
69281;SHT31;56392;51.082;17.080;2023-04-08T17:54:16;10.37;68.06
69281;SHT31;56392;51.082;17.080;2023-04-08T17:59:40;10.33;67.86
69281;SHT31;56392;51.082;17.080;2023-04-08T18:05:04;10.26;68.47
69281;SHT31;56392;51.082;17.080;2023-04-08T18:10:28;10.22;68.24
69281;SHT31;56392;51.082;17.080;2023-04-08T18:15:52;10.23;69.00
69281;SHT31;56392;51.082;17.080;2023-04-08T18:21:17;10.13;69.52
69281;SHT31;56392;51.082;17.080;2023-04-08T18:26:40;10.09;69.95
69281;SHT31;56392;51.082;17.080;2023-04-08T18:32:05;10.06;70.04
69281;SHT31;56392;51.082;17.080;2023-04-08T18:37:29;9.98;70.78
69281;SHT31;56392;51.082;17.080;2023-04-08T18:42:54;9.91;71.40
69281;SHT31;56392;51.082;17.080;2023-04-08T18:48:23;9.88;71.64
69281;SHT31;56392;51.082;17.080;2023-04-08T18:53:47;9.88;70.96
69281;SHT31;56392;51.082;17.080;2023-04-08T18:59:10;9.88;70.92
69281;SHT31;56392;51.082;17.080;2023-04-08T19:04:36;9.84;71.34
69281;SHT31;56392;51.082;17.080;2023-04-08T19:10:00;9.84;71.48
69281;SHT31;56392;51.082;17.080;2023-04-08T19:15:23;9.81;71.65
69281;SHT31;56392;51.082;17.080;2023-04-08T19:20:48;9.79;70.94
69281;SHT31;56392;51.082;17.080;2023-04-08T19:26:11;9.78;71.08
69281;SHT31;56392;51.082;17.080;2023-04-08T19:31:36;9.78;70.99
69281;SHT31;56392;51.082;17.080;2023-04-08T19:37:01;9.71;71.21
69281;SHT31;56392;51.082;17.080;2023-04-08T19:42:24;9.78;70.65
69281;SHT31;56392;51.082;17.080;2023-04-08T19:47:47;9.74;71.16
69281;SHT31;56392;51.082;17.080;2023-04-08T19:53:12;9.70;71.46
69281;SHT31;56392;51.082;17.080;2023-04-08T19:58:35;9.70;71.75
69281;SHT31;56392;51.082;17.080;2023-04-08T20:03:58;9.70;71.82
69281;SHT31;56392;51.082;17.080;2023-04-08T20:09:22;9.65;71.88
69281;SHT31;56392;51.082;17.080;2023-04-08T20:14:48;9.64;71.63
69281;SHT31;56392;51.082;17.080;2023-04-08T20:20:13;9.65;71.66
69281;SHT31;56392;51.082;17.080;2023-04-08T20:25:38;9.64;71.45
69281;SHT31;56392;51.082;17.080;2023-04-08T20:31:02;9.61;71.73
69281;SHT31;56392;51.082;17.080;2023-04-08T20:36:25;9.62;71.61
69281;SHT31;56392;51.082;17.080;2023-04-08T20:41:50;9.62;72.02
69281;SHT31;56392;51.082;17.080;2023-04-08T20:47:13;9.59;71.99
69281;SHT31;56392;51.082;17.080;2023-04-08T20:52:36;9.61;71.79
69281;SHT31;56392;51.082;17.080;2023-04-08T20:58:01;9.58;72.05
69281;SHT31;56392;51.082;17.080;2023-04-08T21:03:26;9.58;71.91
69281;SHT31;56392;51.082;17.080;2023-04-08T21:08:49;9.58;71.88
69281;SHT31;56392;51.082;17.080;2023-04-08T21:14:14;9.58;71.95
69281;SHT31;56392;51.082;17.080;2023-04-08T21:19:37;9.51;71.85
69281;SHT31;56392;51.082;17.080;2023-04-08T21:25:00;9.50;71.90
69281;SHT31;56392;51.082;17.080;2023-04-08T21:30:24;9.43;71.76
69281;SHT31;56392;51.082;17.080;2023-04-08T21:35:48;9.40;71.81
69281;SHT31;56392;51.082;17.080;2023-04-08T21:41:11;9.43;71.99
69281;SHT31;56392;51.082;17.080;2023-04-08T21:46:35;9.38;71.82
69281;SHT31;56392;51.082;17.080;2023-04-08T21:51:58;9.33;71.85
69281;SHT31;56392;51.082;17.080;2023-04-08T21:57:21;9.34;71.94
69281;SHT31;56392;51.082;17.080;2023-04-08T22:02:46;9.33;71.92
69281;SHT31;56392;51.082;17.080;2023-04-08T22:08:09;9.28;71.77
69281;SHT31;56392;51.082;17.080;2023-04-08T22:13:32;9.27;71.94
69281;SHT31;56392;51.082;17.080;2023-04-08T22:18:56;9.28;71.76
69281;SHT31;56392;51.082;17.080;2023-04-08T22:24:20;9.24;71.76
69281;SHT31;56392;51.082;17.080;2023-04-08T22:29:43;9.23;71.79
69281;SHT31;56392;51.082;17.080;2023-04-08T22:35:08;9.22;71.86
69281;SHT31;56392;51.082;17.080;2023-04-08T22:40:34;9.20;71.61
69281;SHT31;56392;51.082;17.080;2023-04-08T22:45:57;9.20;71.55
69281;SHT31;56392;51.082;17.080;2023-04-08T22:51:21;9.19;71.54
69281;SHT31;56392;51.082;17.080;2023-04-08T22:56:44;9.22;71.51
69281;SHT31;56392;51.082;17.080;2023-04-08T23:02:07;9.22;71.69
69281;SHT31;56392;51.082;17.080;2023-04-08T23:07:32;9.14;71.87
69281;SHT31;56392;51.082;17.080;2023-04-08T23:12:55;9.14;71.84
69281;SHT31;56392;51.082;17.080;2023-04-08T23:18:18;9.13;71.68
69281;SHT31;56392;51.082;17.080;2023-04-08T23:23:43;9.09;72.11
69281;SHT31;56392;51.082;17.080;2023-04-08T23:29:06;9.06;71.99
69281;SHT31;56392;51.082;17.080;2023-04-08T23:34:29;9.06;71.97
69281;SHT31;56392;51.082;17.080;2023-04-08T23:39:58;9.07;72.25
69281;SHT31;56392;51.082;17.080;2023-04-08T23:45:21;9.02;71.76
69281;SHT31;56392;51.082;17.080;2023-04-08T23:50:49;9.02;71.63
69281;SHT31;56392;51.082;17.080;2023-04-08T23:56:13;8.97;71.66
